sensor_id;sensor_type;location;lat;lon;timestamp;P1;durP1;ratioP1;P2;durP2;ratioP2
19951;SDS011;10137;49.406;19.484;2023-09-12T00:01:58;12.57;;;8.40;;
19951;SDS011;10137;49.406;19.484;2023-09-12T00:04:27;14.20;;;9.37;;
19951;SDS011;10137;49.406;19.484;2023-09-12T00:06:56;14.37;;;9.07;;
19951;SDS011;10137;49.406;19.484;2023-09-12T00:09:24;12.97;;;9.10;;
19951;SDS011;10137;49.406;19.484;2023-09-12T00:11:54;12.10;;;8.70;;
19951;SDS011;10137;49.406;19.484;2023-09-12T00:14:24;12.27;;;9.07;;
19951;SDS011;10137;49.406;19.484;2023-09-12T00:16:53;16.17;;;9.53;;
19951;SDS011;10137;49.406;19.484;2023-09-12T00:19:21;15.53;;;9.47;;
19951;SDS011;10137;49.406;19.484;2023-09-12T00:21:48;17.27;;;10.73;;
19951;SDS011;10137;49.406;19.484;2023-09-12T00:24:17;13.57;;;10.10;;
19951;SDS011;10137;49.406;19.484;2023-09-12T00:26:45;16.20;;;10.83;;
19951;SDS011;10137;49.406;19.484;2023-09-12T00:29:15;13.17;;;9.43;;
19951;SDS011;10137;49.406;19.484;2023-09-12T00:31:43;15.43;;;10.10;;
19951;SDS011;10137;49.406;19.484;2023-09-12T00:34:15;13.50;;;9.20;;
19951;SDS011;10137;49.406;19.484;2023-09-12T00:36:44;12.20;;;8.87;;
19951;SDS011;10137;49.406;19.484;2023-09-12T00:39:12;11.70;;;8.93;;
19951;SDS011;10137;49.406;19.484;2023-09-12T00:41:40;13.37;;;8.73;;
19951;SDS011;10137;49.406;19.484;2023-09-12T00:44:09;12.67;;;9.17;;
19951;SDS011;10137;49.406;19.484;2023-09-12T00:46:43;15.40;;;8.93;;
19951;SDS011;10137;49.406;19.484;2023-09-12T00:49:13;10.10;;;8.30;;
19951;SDS011;10137;49.406;19.484;2023-09-12T00:51:42;12.60;;;8.63;;
19951;SDS011;10137;49.406;19.484;2023-09-12T00:54:12;14.07;;;9.60;;
19951;SDS011;10137;49.406;19.484;2023-09-12T00:56:40;12.43;;;8.80;;
19951;SDS011;10137;49.406;19.484;2023-09-12T00:59:08;12.77;;;9.13;;
19951;SDS011;10137;49.406;19.484;2023-09-12T01:01:37;14.37;;;9.20;;
19951;SDS011;10137;49.406;19.484;2023-09-12T01:04:07;17.10;;;9.07;;
19951;SDS011;10137;49.406;19.484;2023-09-12T01:06:36;12.90;;;9.90;;
19951;SDS011;10137;49.406;19.484;2023-09-12T01:09:05;13.03;;;9.10;;
19951;SDS011;10137;49.406;19.484;2023-09-12T01:11:34;12.33;;;9.53;;
19951;SDS011;10137;49.406;19.484;2023-09-12T01:14:02;11.10;;;8.63;;
19951;SDS011;10137;49.406;19.484;2023-09-12T01:16:31;13.77;;;8.83;;
19951;SDS011;10137;49.406;19.484;2023-09-12T01:19:05;14.10;;;8.77;;
19951;SDS011;10137;49.406;19.484;2023-09-12T01:21:43;18.80;;;9.03;;
19951;SDS011;10137;49.406;19.484;2023-09-12T01:27:37;14.83;;;9.03;;
19951;SDS011;10137;49.406;19.484;2023-09-12T01:30:09;13.20;;;10.10;;
19951;SDS011;10137;49.406;19.484;2023-09-12T01:32:38;13.53;;;9.20;;
19951;SDS011;10137;49.406;19.484;2023-09-12T01:35:07;12.27;;;9.53;;
19951;SDS011;10137;49.406;19.484;2023-09-12T01:37:36;16.00;;;11.10;;
19951;SDS011;10137;49.406;19.484;2023-09-12T01:40:05;13.53;;;10.53;;
19951;SDS011;10137;49.406;19.484;2023-09-12T01:42:37;13.33;;;10.33;;
19951;SDS011;10137;49.406;19.484;2023-09-12T01:45:08;14.23;;;10.33;;
19951;SDS011;10137;49.406;19.484;2023-09-12T01:47:41;12.73;;;9.50;;
19951;SDS011;10137;49.406;19.484;2023-09-12T01:50:14;13.03;;;9.40;;
19951;SDS011;10137;49.406;19.484;2023-09-12T01:52:44;14.43;;;9.97;;
19951;SDS011;10137;49.406;19.484;2023-09-12T01:55:13;12.63;;;9.13;;
19951;SDS011;10137;49.406;19.484;2023-09-12T01:57:43;11.53;;;8.43;;
19951;SDS011;10137;49.406;19.484;2023-09-12T02:00:11;10.40;;;8.13;;
19951;SDS011;10137;49.406;19.484;2023-09-12T02:02:41;10.73;;;8.97;;
19951;SDS011;10137;49.406;19.484;2023-09-12T02:05:10;11.50;;;8.20;;
19951;SDS011;10137;49.406;19.484;2023-09-12T02:07:41;12.43;;;8.93;;
19951;SDS011;10137;49.406;19.484;2023-09-12T02:10:10;14.20;;;9.23;;
19951;SDS011;10137;49.406;19.484;2023-09-12T02:12:38;10.40;;;8.47;;
19951;SDS011;10137;49.406;19.484;2023-09-12T02:15:08;12.57;;;8.93;;
19951;SDS011;10137;49.406;19.484;2023-09-12T02:17:38;15.97;;;8.87;;
19951;SDS011;10137;49.406;19.484;2023-09-12T02:20:07;12.27;;;8.40;;
19951;SDS011;10137;49.406;19.484;2023-09-12T02:22:36;15.00;;;8.60;;
19951;SDS011;10137;49.406;19.484;2023-09-12T02:25:05;13.47;;;9.20;;
19951;SDS011;10137;49.406;19.484;2023-09-12T02:27:35;11.90;;;8.43;;
19951;SDS011;10137;49.406;19.484;2023-09-12T02:30:04;14.57;;;8.83;;
19951;SDS011;10137;49.406;19.484;2023-09-12T02:32:34;12.83;;;8.50;;
19951;SDS011;10137;49.406;19.484;2023-09-12T02:35:01;15.77;;;8.57;;
19951;SDS011;10137;49.406;19.484;2023-09-12T02:37:31;11.57;;;8.87;;
19951;SDS011;10137;49.406;19.484;2023-09-12T02:40:02;10.63;;;8.47;;
19951;SDS011;10137;49.406;19.484;2023-09-12T02:42:32;11.40;;;8.47;;
19951;SDS011;10137;49.406;19.484;2023-09-12T02:44:59;10.63;;;8.43;;
19951;SDS011;10137;49.406;19.484;2023-09-12T02:47:27;15.87;;;9.13;;
19951;SDS011;10137;49.406;19.484;2023-09-12T02:49:55;14.00;;;8.83;;
19951;SDS011;10137;49.406;19.484;2023-09-12T02:52:24;11.87;;;9.67;;
19951;SDS011;10137;49.406;19.484;2023-09-12T02:54:52;11.43;;;8.60;;
19951;SDS011;10137;49.406;19.484;2023-09-12T02:57:20;12.60;;;8.80;;
19951;SDS011;10137;49.406;19.484;2023-09-12T02:59:48;12.23;;;8.63;;
19951;SDS011;10137;49.406;19.484;2023-09-12T03:02:17;21.37;;;9.27;;
19951;SDS011;10137;49.406;19.484;2023-09-12T03:04:44;16.90;;;9.00;;
19951;SDS011;10137;49.406;19.484;2023-09-12T03:07:13;15.27;;;9.17;;
19951;SDS011;10137;49.406;19.484;2023-09-12T03:09:41;13.77;;;8.83;;
19951;SDS011;10137;49.406;19.484;2023-09-12T03:12:09;13.90;;;8.30;;
19951;SDS011;10137;49.406;19.484;2023-09-12T03:14:38;11.13;;;8.33;;
19951;SDS011;10137;49.406;19.484;2023-09-12T03:17:07;10.93;;;8.53;;
19951;SDS011;10137;49.406;19.484;2023-09-12T03:19:35;14.57;;;8.53;;
19951;SDS011;10137;49.406;19.484;2023-09-12T03:22:03;13.40;;;9.00;;
19951;SDS011;10137;49.406;19.484;2023-09-12T03:24:33;16.50;;;9.13;;
19951;SDS011;10137;49.406;19.484;2023-09-12T03:27:01;11.67;;;7.60;;
19951;SDS011;10137;49.406;19.484;2023-09-12T03:29:30;14.67;;;8.27;;
19951;SDS011;10137;49.406;19.484;2023-09-12T03:31:59;14.00;;;8.40;;
19951;SDS011;10137;49.406;19.484;2023-09-12T03:34:27;12.57;;;8.60;;
19951;SDS011;10137;49.406;19.484;2023-09-12T03:36:55;12.20;;;9.63;;
19951;SDS011;10137;49.406;19.484;2023-09-12T03:39:22;11.63;;;8.63;;
19951;SDS011;10137;49.406;19.484;2023-09-12T03:41:51;15.37;;;9.00;;
19951;SDS011;10137;49.406;19.484;2023-09-12T03:44:20;13.37;;;8.97;;
19951;SDS011;10137;49.406;19.484;2023-09-12T03:46:48;14.73;;;8.83;;
19951;SDS011;10137;49.406;19.484;2023-09-12T03:49:16;17.47;;;8.73;;
19951;SDS011;10137;49.406;19.484;2023-09-12T03:51:44;15.07;;;8.30;;
19951;SDS011;10137;49.406;19.484;2023-09-12T03:54:11;15.07;;;9.00;;
19951;SDS011;10137;49.406;19.484;2023-09-12T03:56:44;12.97;;;8.90;;
19951;SDS011;10137;49.406;19.484;2023-09-12T03:59:12;14.43;;;8.67;;
19951;SDS011;10137;49.406;19.484;2023-09-12T04:01:43;11.20;;;8.77;;
19951;SDS011;10137;49.406;19.484;2023-09-12T04:04:11;11.40;;;8.50;;
19951;SDS011;10137;49.406;19.484;2023-09-12T04:06:40;16.13;;;8.57;;
19951;SDS011;10137;49.406;19.484;2023-09-12T04:09:08;11.60;;;9.60;;
19951;SDS011;10137;49.406;19.484;2023-09-12T04:11:36;12.40;;;8.70;;
19951;SDS011;10137;49.406;19.484;2023-09-12T04:14:03;10.50;;;8.20;;
19951;SDS011;10137;49.406;19.484;2023-09-12T04:16:32;9.00;;;7.90;;
19951;SDS011;10137;49.406;19.484;2023-09-12T04:18:59;11.73;;;9.40;;
19951;SDS011;10137;49.406;19.484;2023-09-12T04:21:27;13.73;;;8.60;;
19951;SDS011;10137;49.406;19.484;2023-09-12T04:23:54;17.90;;;9.57;;
19951;SDS011;10137;49.406;19.484;2023-09-12T04:26:22;22.97;;;9.40;;
19951;SDS011;10137;49.406;19.484;2023-09-12T04:28:50;30.27;;;10.53;;
19951;SDS011;10137;49.406;19.484;2023-09-12T04:31:17;27.37;;;9.93;;
19951;SDS011;10137;49.406;19.484;2023-09-12T04:33:47;21.10;;;10.17;;
19951;SDS011;10137;49.406;19.484;2023-09-12T04:36:16;19.27;;;9.93;;
19951;SDS011;10137;49.406;19.484;2023-09-12T04:38:45;22.70;;;10.37;;
19951;SDS011;10137;49.406;19.484;2023-09-12T04:41:12;22.23;;;8.97;;
19951;SDS011;10137;49.406;19.484;2023-09-12T04:43:42;16.23;;;9.03;;
19951;SDS011;10137;49.406;19.484;2023-09-12T04:46:14;13.33;;;8.17;;
19951;SDS011;10137;49.406;19.484;2023-09-12T04:48:41;14.80;;;8.80;;
19951;SDS011;10137;49.406;19.484;2023-09-12T04:51:10;17.77;;;8.40;;
19951;SDS011;10137;49.406;19.484;2023-09-12T04:53:38;19.67;;;8.90;;
19951;SDS011;10137;49.406;19.484;2023-09-12T04:56:05;14.27;;;8.60;;
19951;SDS011;10137;49.406;19.484;2023-09-12T04:58:35;16.97;;;9.10;;
19951;SDS011;10137;49.406;19.484;2023-09-12T05:01:02;26.03;;;8.77;;
19951;SDS011;10137;49.406;19.484;2023-09-12T05:03:29;16.10;;;8.83;;
19951;SDS011;10137;49.406;19.484;2023-09-12T05:05:58;16.30;;;8.90;;
19951;SDS011;10137;49.406;19.484;2023-09-12T05:08:31;15.83;;;8.90;;
19951;SDS011;10137;49.406;19.484;2023-09-12T05:11:01;16.87;;;8.20;;
19951;SDS011;10137;49.406;19.484;2023-09-12T05:13:28;21.23;;;9.10;;
19951;SDS011;10137;49.406;19.484;2023-09-12T05:15:55;14.93;;;8.80;;
19951;SDS011;10137;49.406;19.484;2023-09-12T05:18:23;16.33;;;8.47;;
19951;SDS011;10137;49.406;19.484;2023-09-12T05:20:50;10.33;;;7.47;;
19951;SDS011;10137;49.406;19.484;2023-09-12T05:23:17;11.97;;;8.47;;
19951;SDS011;10137;49.406;19.484;2023-09-12T05:25:45;12.23;;;8.90;;
19951;SDS011;10137;49.406;19.484;2023-09-12T05:28:13;8.90;;;7.50;;
19951;SDS011;10137;49.406;19.484;2023-09-12T05:30:42;11.60;;;8.57;;
19951;SDS011;10137;49.406;19.484;2023-09-12T05:33:10;10.40;;;8.00;;
19951;SDS011;10137;49.406;19.484;2023-09-12T05:35:38;13.07;;;8.13;;
19951;SDS011;10137;49.406;19.484;2023-09-12T05:38:06;10.03;;;8.13;;
19951;SDS011;10137;49.406;19.484;2023-09-12T05:40:33;11.57;;;8.93;;
19951;SDS011;10137;49.406;19.484;2023-09-12T05:43:03;16.77;;;8.43;;
19951;SDS011;10137;49.406;19.484;2023-09-12T05:45:31;16.20;;;8.37;;
19951;SDS011;10137;49.406;19.484;2023-09-12T05:48:01;11.77;;;8.30;;
19951;SDS011;10137;49.406;19.484;2023-09-12T05:50:29;17.87;;;8.20;;
19951;SDS011;10137;49.406;19.484;2023-09-12T05:52:58;14.47;;;8.40;;
19951;SDS011;10137;49.406;19.484;2023-09-12T05:55:26;12.20;;;8.73;;
19951;SDS011;10137;49.406;19.484;2023-09-12T05:57:54;13.70;;;8.40;;
19951;SDS011;10137;49.406;19.484;2023-09-12T06:00:23;11.47;;;8.13;;
19951;SDS011;10137;49.406;19.484;2023-09-12T06:02:52;12.57;;;7.80;;
19951;SDS011;10137;49.406;19.484;2023-09-12T06:05:20;14.53;;;8.23;;
19951;SDS011;10137;49.406;19.484;2023-09-12T06:07:49;11.07;;;7.60;;
19951;SDS011;10137;49.406;19.484;2023-09-12T06:10:17;15.40;;;8.67;;
19951;SDS011;10137;49.406;19.484;2023-09-12T06:12:45;18.23;;;9.37;;
19951;SDS011;10137;49.406;19.484;2023-09-12T06:15:13;20.07;;;9.03;;
19951;SDS011;10137;49.406;19.484;2023-09-12T06:17:43;16.63;;;8.47;;
19951;SDS011;10137;49.406;19.484;2023-09-12T06:20:11;20.70;;;9.47;;
19951;SDS011;10137;49.406;19.484;2023-09-12T06:22:39;25.20;;;9.55;;
19951;SDS011;10137;49.406;19.484;2023-09-12T06:25:07;17.00;;;9.05;;
19951;SDS011;10137;49.406;19.484;2023-09-12T06:27:35;22.95;;;8.88;;
19951;SDS011;10137;49.406;19.484;2023-09-12T06:30:04;18.67;;;9.70;;
19951;SDS011;10137;49.406;19.484;2023-09-12T06:32:33;14.88;;;9.15;;
19951;SDS011;10137;49.406;19.484;2023-09-12T06:35:03;17.33;;;9.70;;
19951;SDS011;10137;49.406;19.484;2023-09-12T06:37:32;18.80;;;9.70;;
19951;SDS011;10137;49.406;19.484;2023-09-12T06:40:00;17.33;;;9.20;;
19951;SDS011;10137;49.406;19.484;2023-09-12T06:42:29;15.27;;;9.88;;
19951;SDS011;10137;49.406;19.484;2023-09-12T06:44:58;17.35;;;9.50;;
19951;SDS011;10137;49.406;19.484;2023-09-12T06:47:26;18.98;;;10.00;;
19951;SDS011;10137;49.406;19.484;2023-09-12T06:49:54;19.25;;;9.98;;
19951;SDS011;10137;49.406;19.484;2023-09-12T06:52:24;17.35;;;9.82;;
19951;SDS011;10137;49.406;19.484;2023-09-12T06:54:52;30.13;;;10.52;;
19951;SDS011;10137;49.406;19.484;2023-09-12T06:57:20;19.25;;;10.40;;
19951;SDS011;10137;49.406;19.484;2023-09-12T06:59:48;15.40;;;9.13;;
19951;SDS011;10137;49.406;19.484;2023-09-12T07:02:16;27.08;;;10.40;;
19951;SDS011;10137;49.406;19.484;2023-09-12T07:04:44;19.38;;;10.90;;
19951;SDS011;10137;49.406;19.484;2023-09-12T07:07:12;22.63;;;10.20;;
19951;SDS011;10137;49.406;19.484;2023-09-12T07:09:42;17.35;;;10.65;;
19951;SDS011;10137;49.406;19.484;2023-09-12T07:12:10;16.77;;;10.45;;
19951;SDS011;10137;49.406;19.484;2023-09-12T07:14:38;19.58;;;10.93;;
19951;SDS011;10137;49.406;19.484;2023-09-12T07:17:07;14.75;;;10.23;;
19951;SDS011;10137;49.406;19.484;2023-09-12T07:19:36;16.05;;;10.18;;
19951;SDS011;10137;49.406;19.484;2023-09-12T07:22:05;16.48;;;9.95;;
19951;SDS011;10137;49.406;19.484;2023-09-12T07:24:36;17.70;;;9.02;;
19951;SDS011;10137;49.406;19.484;2023-09-12T07:27:08;16.13;;;9.88;;
19951;SDS011;10137;49.406;19.484;2023-09-12T07:29:37;21.25;;;9.15;;
19951;SDS011;10137;49.406;19.484;2023-09-12T07:32:05;13.30;;;9.23;;
19951;SDS011;10137;49.406;19.484;2023-09-12T07:34:33;18.88;;;8.93;;
19951;SDS011;10137;49.406;19.484;2023-09-12T07:37:01;11.73;;;9.00;;
19951;SDS011;10137;49.406;19.484;2023-09-12T07:39:32;10.80;;;8.00;;
19951;SDS011;10137;49.406;19.484;2023-09-12T07:42:00;10.40;;;8.30;;
19951;SDS011;10137;49.406;19.484;2023-09-12T07:44:30;11.63;;;8.60;;
19951;SDS011;10137;49.406;19.484;2023-09-12T07:46:58;13.57;;;8.55;;
19951;SDS011;10137;49.406;19.484;2023-09-12T07:49:27;14.52;;;8.95;;
19951;SDS011;10137;49.406;19.484;2023-09-12T07:51:55;11.90;;;8.20;;
19951;SDS011;10137;49.406;19.484;2023-09-12T07:54:23;10.70;;;8.13;;
19951;SDS011;10137;49.406;19.484;2023-09-12T07:56:51;14.90;;;8.85;;
19951;SDS011;10137;49.406;19.484;2023-09-12T07:59:19;14.82;;;9.48;;
19951;SDS011;10137;49.406;19.484;2023-09-12T08:01:48;14.05;;;8.70;;
19951;SDS011;10137;49.406;19.484;2023-09-12T08:04:17;14.18;;;8.90;;
19951;SDS011;10137;49.406;19.484;2023-09-12T08:06:46;17.70;;;8.70;;
19951;SDS011;10137;49.406;19.484;2023-09-12T08:09:17;11.82;;;8.60;;
19951;SDS011;10137;49.406;19.484;2023-09-12T08:11:46;14.02;;;8.70;;
19951;SDS011;10137;49.406;19.484;2023-09-12T08:14:16;17.20;;;9.52;;
19951;SDS011;10137;49.406;19.484;2023-09-12T08:16:46;19.02;;;10.00;;
19951;SDS011;10137;49.406;19.484;2023-09-12T08:19:19;15.05;;;9.48;;
19951;SDS011;10137;49.406;19.484;2023-09-12T08:21:47;14.80;;;9.82;;
19951;SDS011;10137;49.406;19.484;2023-09-12T08:24:15;13.85;;;9.32;;
19951;SDS011;10137;49.406;19.484;2023-09-12T08:26:46;15.27;;;9.90;;
19951;SDS011;10137;49.406;19.484;2023-09-12T08:29:17;17.52;;;11.02;;
19951;SDS011;10137;49.406;19.484;2023-09-12T08:31:45;16.67;;;10.73;;
19951;SDS011;10137;49.406;19.484;2023-09-12T08:34:21;13.48;;;10.52;;
19951;SDS011;10137;49.406;19.484;2023-09-12T08:36:49;18.27;;;10.88;;
19951;SDS011;10137;49.406;19.484;2023-09-12T08:39:18;16.80;;;10.63;;
19951;SDS011;10137;49.406;19.484;2023-09-12T08:41:51;16.50;;;11.40;;
19951;SDS011;10137;49.406;19.484;2023-09-12T08:44:20;19.25;;;12.48;;
19951;SDS011;10137;49.406;19.484;2023-09-12T08:46:48;18.83;;;11.90;;
19951;SDS011;10137;49.406;19.484;2023-09-12T08:49:21;15.00;;;11.05;;
19951;SDS011;10137;49.406;19.484;2023-09-12T08:51:50;17.08;;;9.82;;
19951;SDS011;10137;49.406;19.484;2023-09-12T08:54:18;15.95;;;9.48;;
19951;SDS011;10137;49.406;19.484;2023-09-12T08:56:47;14.10;;;9.57;;
19951;SDS011;10137;49.406;19.484;2023-09-12T08:59:15;14.13;;;9.25;;
19951;SDS011;10137;49.406;19.484;2023-09-12T09:01:44;11.65;;;8.57;;
19951;SDS011;10137;49.406;19.484;2023-09-12T09:04:13;12.85;;;8.30;;
19951;SDS011;10137;49.406;19.484;2023-09-12T09:06:43;12.27;;;8.93;;
19951;SDS011;10137;49.406;19.484;2023-09-12T09:09:11;11.75;;;8.50;;
19951;SDS011;10137;49.406;19.484;2023-09-12T09:11:40;14.10;;;8.52;;
19951;SDS011;10137;49.406;19.484;2023-09-12T09:14:07;13.73;;;8.45;;
19951;SDS011;10137;49.406;19.484;2023-09-12T09:16:36;10.23;;;8.27;;
19951;SDS011;10137;49.406;19.484;2023-09-12T09:19:06;12.52;;;7.90;;
19951;SDS011;10137;49.406;19.484;2023-09-12T09:21:36;10.68;;;8.20;;
19951;SDS011;10137;49.406;19.484;2023-09-12T09:24:09;10.45;;;8.27;;
19951;SDS011;10137;49.406;19.484;2023-09-12T09:26:41;10.68;;;7.80;;
19951;SDS011;10137;49.406;19.484;2023-09-12T09:29:13;12.82;;;7.88;;
19951;SDS011;10137;49.406;19.484;2023-09-12T09:31:43;12.57;;;7.68;;
19951;SDS011;10137;49.406;19.484;2023-09-12T09:34:13;14.00;;;7.78;;
19951;SDS011;10137;49.406;19.484;2023-09-12T09:36:42;11.25;;;7.40;;
19951;SDS011;10137;49.406;19.484;2023-09-12T09:39:12;16.50;;;8.27;;
19951;SDS011;10137;49.406;19.484;2023-09-12T09:41:46;10.48;;;8.30;;
19951;SDS011;10137;49.406;19.484;2023-09-12T09:44:16;11.77;;;7.18;;
19951;SDS011;10137;49.406;19.484;2023-09-12T09:46:44;11.32;;;6.85;;
19951;SDS011;10137;49.406;19.484;2023-09-12T09:49:15;16.88;;;6.50;;
19951;SDS011;10137;49.406;19.484;2023-09-12T09:51:44;12.02;;;6.50;;
19951;SDS011;10137;49.406;19.484;2023-09-12T09:54:16;10.73;;;6.38;;
19951;SDS011;10137;49.406;19.484;2023-09-12T09:56:48;10.85;;;5.70;;
19951;SDS011;10137;49.406;19.484;2023-09-12T09:59:18;10.60;;;5.93;;
19951;SDS011;10137;49.406;19.484;2023-09-12T10:01:49;7.40;;;5.53;;
19951;SDS011;10137;49.406;19.484;2023-09-12T10:04:18;9.43;;;4.75;;
19951;SDS011;10137;49.406;19.484;2023-09-12T10:06:46;5.93;;;4.50;;
19951;SDS011;10137;49.406;19.484;2023-09-12T10:09:22;6.65;;;4.75;;
19951;SDS011;10137;49.406;19.484;2023-09-12T10:11:56;6.22;;;4.53;;
19951;SDS011;10137;49.406;19.484;2023-09-12T10:14:26;9.40;;;4.78;;
19951;SDS011;10137;49.406;19.484;2023-09-12T10:17:02;11.52;;;5.43;;
19951;SDS011;10137;49.406;19.484;2023-09-12T10:19:32;7.25;;;4.22;;
19951;SDS011;10137;49.406;19.484;2023-09-12T10:22:12;5.90;;;4.68;;
19951;SDS011;10137;49.406;19.484;2023-09-12T10:24:52;10.60;;;4.57;;
19951;SDS011;10137;49.406;19.484;2023-09-12T10:27:22;8.68;;;4.80;;
19951;SDS011;10137;49.406;19.484;2023-09-12T10:29:51;5.80;;;4.30;;
19951;SDS011;10137;49.406;19.484;2023-09-12T10:32:20;8.50;;;4.55;;
19951;SDS011;10137;49.406;19.484;2023-09-12T10:34:49;9.45;;;4.18;;
19951;SDS011;10137;49.406;19.484;2023-09-12T10:37:21;8.55;;;5.00;;
19951;SDS011;10137;49.406;19.484;2023-09-12T10:39:56;6.60;;;4.30;;
19951;SDS011;10137;49.406;19.484;2023-09-12T10:42:27;9.30;;;4.80;;
19951;SDS011;10137;49.406;19.484;2023-09-12T10:44:56;10.95;;;4.53;;
19951;SDS011;10137;49.406;19.484;2023-09-12T10:47:26;9.20;;;4.35;;
19951;SDS011;10137;49.406;19.484;2023-09-12T10:49:55;6.63;;;4.75;;
19951;SDS011;10137;49.406;19.484;2023-09-12T10:52:27;7.70;;;4.63;;
19951;SDS011;10137;49.406;19.484;2023-09-12T10:54:57;7.53;;;4.53;;
19951;SDS011;10137;49.406;19.484;2023-09-12T10:57:25;11.98;;;5.07;;
19951;SDS011;10137;49.406;19.484;2023-09-12T11:02:41;10.38;;;4.80;;
19951;SDS011;10137;49.406;19.484;2023-09-12T11:08:08;8.45;;;5.00;;
19951;SDS011;10137;49.406;19.484;2023-09-12T11:10:43;5.82;;;4.55;;
19951;SDS011;10137;49.406;19.484;2023-09-12T11:13:16;7.93;;;4.28;;
19951;SDS011;10137;49.406;19.484;2023-09-12T11:21:42;7.40;;;4.22;;
19951;SDS011;10137;49.406;19.484;2023-09-12T11:24:15;11.25;;;4.90;;
19951;SDS011;10137;49.406;19.484;2023-09-12T11:26:57;9.57;;;4.70;;
19951;SDS011;10137;49.406;19.484;2023-09-12T11:29:29;8.43;;;5.03;;
19951;SDS011;10137;49.406;19.484;2023-09-12T11:32:02;6.47;;;4.38;;
19951;SDS011;10137;49.406;19.484;2023-09-12T11:34:35;8.25;;;4.47;;
19951;SDS011;10137;49.406;19.484;2023-09-12T11:37:05;7.35;;;4.32;;
19951;SDS011;10137;49.406;19.484;2023-09-12T11:39:33;13.18;;;4.80;;
19951;SDS011;10137;49.406;19.484;2023-09-12T11:42:04;8.95;;;4.45;;
19951;SDS011;10137;49.406;19.484;2023-09-12T11:44:39;7.25;;;4.65;;
19951;SDS011;10137;49.406;19.484;2023-09-12T11:47:11;7.32;;;4.50;;
19951;SDS011;10137;49.406;19.484;2023-09-12T11:49:40;8.65;;;4.80;;
19951;SDS011;10137;49.406;19.484;2023-09-12T11:52:09;8.70;;;4.47;;
19951;SDS011;10137;49.406;19.484;2023-09-12T11:54:38;8.63;;;4.35;;
19951;SDS011;10137;49.406;19.484;2023-09-12T11:57:09;6.88;;;4.18;;
19951;SDS011;10137;49.406;19.484;2023-09-12T11:59:39;6.63;;;4.45;;
19951;SDS011;10137;49.406;19.484;2023-09-12T12:02:11;8.45;;;4.25;;
19951;SDS011;10137;49.406;19.484;2023-09-12T12:04:40;8.38;;;4.10;;
19951;SDS011;10137;49.406;19.484;2023-09-12T12:07:08;6.30;;;4.13;;
19951;SDS011;10137;49.406;19.484;2023-09-12T12:09:40;7.75;;;4.40;;
19951;SDS011;10137;49.406;19.484;2023-09-12T12:12:13;7.68;;;4.15;;
19951;SDS011;10137;49.406;19.484;2023-09-12T12:14:42;8.13;;;4.53;;
19951;SDS011;10137;49.406;19.484;2023-09-12T12:17:11;8.60;;;4.25;;
19951;SDS011;10137;49.406;19.484;2023-09-12T12:19:44;8.20;;;4.10;;
19951;SDS011;10137;49.406;19.484;2023-09-12T12:22:13;6.50;;;3.97;;
19951;SDS011;10137;49.406;19.484;2023-09-12T12:24:44;7.97;;;4.45;;
19951;SDS011;10137;49.406;19.484;2023-09-12T12:27:15;9.95;;;4.60;;
19951;SDS011;10137;49.406;19.484;2023-09-12T12:29:44;10.98;;;4.75;;
19951;SDS011;10137;49.406;19.484;2023-09-12T12:32:14;10.95;;;5.05;;
19951;SDS011;10137;49.406;19.484;2023-09-12T12:34:47;6.90;;;4.30;;
19951;SDS011;10137;49.406;19.484;2023-09-12T12:37:15;8.45;;;4.00;;
19951;SDS011;10137;49.406;19.484;2023-09-12T12:39:44;9.10;;;4.43;;
19951;SDS011;10137;49.406;19.484;2023-09-12T12:42:12;8.27;;;4.53;;
19951;SDS011;10137;49.406;19.484;2023-09-12T12:44:41;6.97;;;4.95;;
19951;SDS011;10137;49.406;19.484;2023-09-12T12:47:11;9.15;;;4.28;;
19951;SDS011;10137;49.406;19.484;2023-09-12T12:49:40;8.85;;;5.10;;
19951;SDS011;10137;49.406;19.484;2023-09-12T12:52:09;12.23;;;4.72;;
19951;SDS011;10137;49.406;19.484;2023-09-12T12:54:41;9.07;;;4.80;;
19951;SDS011;10137;49.406;19.484;2023-09-12T12:57:10;14.63;;;5.07;;
19951;SDS011;10137;49.406;19.484;2023-09-12T12:59:45;10.45;;;5.03;;
19951;SDS011;10137;49.406;19.484;2023-09-12T13:02:14;13.45;;;4.97;;
19951;SDS011;10137;49.406;19.484;2023-09-12T13:04:42;9.90;;;4.93;;
19951;SDS011;10137;49.406;19.484;2023-09-12T13:07:11;10.65;;;4.78;;
19951;SDS011;10137;49.406;19.484;2023-09-12T13:09:39;7.53;;;4.72;;
19951;SDS011;10137;49.406;19.484;2023-09-12T13:12:09;6.82;;;4.40;;
19951;SDS011;10137;49.406;19.484;2023-09-12T13:14:37;8.70;;;4.57;;
19951;SDS011;10137;49.406;19.484;2023-09-12T13:17:05;9.63;;;4.28;;
19951;SDS011;10137;49.406;19.484;2023-09-12T13:19:32;7.30;;;4.43;;
19951;SDS011;10137;49.406;19.484;2023-09-12T13:22:00;8.02;;;4.15;;
19951;SDS011;10137;49.406;19.484;2023-09-12T13:24:27;7.80;;;4.63;;
19951;SDS011;10137;49.406;19.484;2023-09-12T13:26:55;6.80;;;4.30;;
19951;SDS011;10137;49.406;19.484;2023-09-12T13:29:22;7.35;;;3.97;;
19951;SDS011;10137;49.406;19.484;2023-09-12T13:31:49;7.47;;;4.45;;
19951;SDS011;10137;49.406;19.484;2023-09-12T13:34:17;5.82;;;4.03;;
19951;SDS011;10137;49.406;19.484;2023-09-12T13:36:44;9.82;;;4.20;;
19951;SDS011;10137;49.406;19.484;2023-09-12T13:39:11;10.15;;;4.13;;
19951;SDS011;10137;49.406;19.484;2023-09-12T13:41:38;10.98;;;4.30;;
19951;SDS011;10137;49.406;19.484;2023-09-12T13:44:06;9.10;;;4.28;;
19951;SDS011;10137;49.406;19.484;2023-09-12T13:46:33;10.38;;;4.55;;
19951;SDS011;10137;49.406;19.484;2023-09-12T13:49:00;7.90;;;4.60;;
19951;SDS011;10137;49.406;19.484;2023-09-12T13:51:30;5.82;;;4.57;;
19951;SDS011;10137;49.406;19.484;2023-09-12T13:53:57;8.70;;;4.60;;
19951;SDS011;10137;49.406;19.484;2023-09-12T13:56:24;12.05;;;4.97;;
19951;SDS011;10137;49.406;19.484;2023-09-12T13:58:51;7.28;;;4.30;;
19951;SDS011;10137;49.406;19.484;2023-09-12T14:01:18;8.35;;;4.70;;
19951;SDS011;10137;49.406;19.484;2023-09-12T14:03:45;8.40;;;4.68;;
19951;SDS011;10137;49.406;19.484;2023-09-12T14:06:12;6.90;;;4.47;;
19951;SDS011;10137;49.406;19.484;2023-09-12T14:08:41;8.30;;;4.57;;
19951;SDS011;10137;49.406;19.484;2023-09-12T14:11:08;9.38;;;4.47;;
19951;SDS011;10137;49.406;19.484;2023-09-12T14:13:35;9.98;;;4.55;;
19951;SDS011;10137;49.406;19.484;2023-09-12T14:16:02;11.57;;;4.68;;
19951;SDS011;10137;49.406;19.484;2023-09-12T14:18:29;9.48;;;4.57;;
19951;SDS011;10137;49.406;19.484;2023-09-12T14:20:56;10.52;;;4.55;;
19951;SDS011;10137;49.406;19.484;2023-09-12T14:23:23;16.88;;;5.00;;
19951;SDS011;10137;49.406;19.484;2023-09-12T14:25:52;14.88;;;5.07;;
19951;SDS011;10137;49.406;19.484;2023-09-12T14:28:20;18.65;;;5.30;;
19951;SDS011;10137;49.406;19.484;2023-09-12T14:30:47;13.63;;;5.13;;
19951;SDS011;10137;49.406;19.484;2023-09-12T14:33:15;9.68;;;4.80;;
19951;SDS011;10137;49.406;19.484;2023-09-12T14:35:43;11.82;;;4.20;;
19951;SDS011;10137;49.406;19.484;2023-09-12T14:38:10;10.63;;;4.60;;
19951;SDS011;10137;49.406;19.484;2023-09-12T14:40:41;16.30;;;5.07;;
19951;SDS011;10137;49.406;19.484;2023-09-12T14:43:12;6.55;;;4.70;;
19951;SDS011;10137;49.406;19.484;2023-09-12T14:45:39;10.00;;;4.57;;
19951;SDS011;10137;49.406;19.484;2023-09-12T14:48:06;10.07;;;4.45;;
19951;SDS011;10137;49.406;19.484;2023-09-12T14:50:33;9.88;;;4.70;;